ADDS METAR Data INFO
IDs: Format: Raw Decoded Include TAF

Data at: 0034 UTC 23 Oct 2017

PAII 230031Z AUTO 00000KT 1SM -SN BR FEW010 BKN013 OVC040 00/M02 A2956 RMK AO2 UPB17E21SNB21 P0000 FZRANO
PAII 230026Z AUTO 27006G15KT 1SM -SN BR FEW008 BKN013 BKN021 00/M02 A2956 RMK AO2 UPB17E21SNB21 P0000 FZRANO
PAII 230020Z AUTO 27010G15KT 2 1/2SM UP BR FEW010 SCT013 BKN031 01/M02 A2956 RMK AO2 UPB17 P0000 FZRANO
PAII 222356Z AUTO 19012KT 10SM SCT029 BKN038 BKN090 02/M02 A2954 RMK AO2 SLP006 60006 T00221017 10022 21017 51009 FZRANO
PAII 222256Z AUTO 19014G20KT 10SM BKN055 01/M01 A2953 RMK AO2 SNE20 SLP003 P0002 T00111011 FZRANO
PAII 222223Z AUTO 17012KT 9SM FEW013 BKN043 OVC060 01/M01 A2953 RMK AO2 SNE20 P0000 FZRANO
PAII 222156Z AUTO 19008KT 2SM -SN BR SCT014 BKN032 OVC095 M01/M02 A2953 RMK AO2 UPB36E39SNE36B39 SLP003 P0000 T10061017 FZRANO
PAII 222128Z AUTO 18010KT 9SM -SN FEW009 SCT037 BKN090 M01/M02 A2952 RMK AO2 P0000 FZRANO
PAII 222120Z AUTO 17010KT 9SM -SN SCT011 BKN090 OVC110 M01/M02 A2952 RMK AO2 P0000 FZRANO
PAII 222111Z AUTO 18011KT 5SM -SN BR SCT009 BKN015 BKN024 M01/M02 A2952 RMK AO2 P0000 FZRANO
PAII 222109Z AUTO 17010KT 2 1/2SM -SN BR BKN009 BKN015 BKN029 M01/M02 A2952 RMK AO2 CIG 007V013 P0000 FZRANO
PAII 222105Z AUTO 17011KT 1SM -SN BR BKN009 BKN015 OVC029 M01/M02 A2951 RMK AO2 CIG 007V013 P0000 FZRANO
PAII 222056Z AUTO 18012KT 3/4SM -SN BR SCT009 BKN026 OVC043 M01/M02 A2951 RMK AO2 SNB04 SLP997 P0002 60004 T10061017 53026 FZRANO
PAII 222029Z AUTO 21006KT 3SM -SN BR FEW012 BKN019 OVC041 M01/M02 A2950 RMK AO2 SNB04 P0002 FZRANO
PAII 222019Z AUTO 21008KT 1 1/2SM -SN BR SCT017 BKN023 OVC050 M01/M02 A2950 RMK AO2 SNB04 P0000 FZRANO
PAII 221956Z AUTO 19010KT 10SM FEW050 M01/M02 A2948 RMK AO2 SNE04 SLP985 P0000 T10111022 FZRANO
PAII 221928Z AUTO 16010KT 10SM FEW022 SCT028 BKN060 M01/M02 A2946 RMK AO2 SNE04 P0000 FZRANO
PAII 221846Z AUTO 17006KT 3SM -SN BR BKN014 BKN023 OVC034 M01/M02 A2945 RMK AO2 P0002 FZRANO
PAII 221840Z AUTO 17008KT 2SM -SN BR FEW011 BKN016 OVC034 M01/M02 A2945 RMK AO2 VIS 1 1/4V5 P0002 FZRANO
PAII 221824Z AUTO 18010KT 1SM -SN BR SCT011 BKN018 OVC028 M02/M02 A2945 RMK AO2 P0002 FZRANO
PAII 221822Z AUTO 18011KT 1SM -SN BR BKN012 BKN028 M02/M02 A2944 RMK AO2 CIG 005V019 P0001 FZRANO
PAII 221737Z AUTO 15009KT 9SM -SN FEW019 BKN039 BKN060 M02/M03 A2943 RMK AO2 P0000 FZRANO
PAII 221652Z AUTO 16011KT 4SM -SN BR FEW008 BKN018 OVC030 M02/M02 A2942 RMK AO2 P0001 FZRANO
PAII 221639Z AUTO 17011KT 2SM -SN BR FEW005 BKN015 OVC022 M02/M02 A2942 RMK AO2 VIS 1 1/2V2 1/2 P0001 FZRANO
PAII 221600Z AUTO 17010KT 3SM -SN BR SCT009 BKN015 OVC023 M02/M02 A2941 RMK AO2 P0000 FZRANO
PAII 221556Z AUTO 16009KT 1 3/4SM -SN BR BKN009 BKN018 OVC040 M02/M03 A2941 RMK AO2 CIG 006V011 SLP962 P0000 T10171028 FZRANO
PAII 221549Z AUTO 17010KT 1 1/2SM -SN BR BKN009 BKN024 OVC050 M02/M03 A2941 RMK AO2 VIS 1V4 CIG 006V018 P0000 FZRANO
PAII 221545Z AUTO 17012KT 2 1/2SM -SN BR SCT009 BKN019 OVC050 M02/M03 A2941 RMK AO2 VIS 1V5 CIG 014V026 P0000 FZRANO
PAII 221456Z AUTO 17009KT 8SM -SN FEW013 BKN021 OVC070 M03/M03 A2939 RMK AO2 SLP956 P0000 60000 T10281033 51006 FZRANO
PAII 221442Z AUTO 17009KT 7SM -SN FEW011 BKN017 BKN025 M03/M03 A2939 RMK AO2 P0000 FZRANO
PAII 221429Z AUTO 17007KT 2SM -SN BR FEW009 BKN017 OVC032 M04/M04 A2939 RMK AO2 P0000 FZRANO
PAII 221414Z AUTO 13005KT 1 3/4SM -SN BR SCT009 BKN017 BKN038 M06/M07 A2939 RMK AO2 P0000 FZRANO
PAII 221356Z AUTO 13006KT 9SM -SN FEW001 SCT048 BKN065 M06/M06 A2939 RMK AO2 UPB46E48SNB26E46B53 SLP954 P0000 T10561061 FZRANO
PAII 221348Z AUTO 15006KT 3SM BR BKN001 BKN044 BKN085 M06/M07 A2939 RMK AO2 UPB46E48SNB26E46 P0000 FZRANO
PAII 221319Z AUTO 14007KT 8SM SCT003 M06/M07 A2939 RMK AO2 FZRANO
PAII 221256Z AUTO 15005KT 10SM CLR M06/M07 A2938 RMK AO2 SLP954 T10611072 FZRANO
PAII 221156Z AUTO 15005KT 10SM CLR M06/M07 A2937 RMK AO2 SLP950 T10611072 11033 21067 51007 FZRANO
PAII 220756Z AUTO 29003KT 10SM CLR M05/M06 A2934 RMK AO2 SLP937 T10501061 400171100 FZRANO
PAII 220656Z AUTO 35004KT 10SM CLR M04/M06 A2931 RMK AO2 SLP929 T10441061 FZRANO
PAII 220356Z AUTO 01009KT 10SM OVC025 M01/M03 A2924 RMK AO2 UPB36E50SNE36 SLP904 P0000 T10111028 FZRANO
PAII 220309Z AUTO 04007KT 2SM -SN BR SCT013 OVC023 M01/M03 A2922 RMK AO2 P0000 FZRANO
PAII 220304Z AUTO 04007KT 1SM -SN BR FEW005 SCT013 OVC021 M01/M03 A2922 RMK AO2 P0000 FZRANO
PAII 220248Z AUTO 06007KT 3/4SM -SN BR SCT005 OVC011 M01/M02 A2923 RMK AO2 RAE22SNB22 P0000 FZRANO
PAII 220231Z AUTO 11008KT 1SM -SN BR FEW005 BKN019 OVC040 M01/M02 A2923 RMK AO2 RAE22SNB22 P0000 FZRANO
PAII 220229Z AUTO 11007KT 1 1/2SM -SN BR SCT011 BKN028 OVC038 M01/M03 A2923 RMK AO2 VIS 1/2V5 RAE22SNB22 P0000 FZRANO
PAII 220156Z AUTO 07006KT 10SM -RA FEW025 OVC055 01/M06 A2922 RMK AO2 RAB46 SLP899 P0000 T00061061 FZRANO
PAII 220056Z AUTO 09005KT 10SM OVC050 01/M08 A2924 RMK AO2 SLP906 T00111078 FZRANO
PAII 212356Z AUTO 08006KT 10SM FEW070 BKN110 01/M07 A2925 RMK AO2 SLP909 T00061072 10017 21089 58009 FZRANO
PAII 212256Z AUTO 09007KT 10SM CLR 01/M07 A2926 RMK AO2 SLP912 T00111067 FZRANO
PAII 212156Z AUTO 09006KT 10SM CLR 00/M05 A2928 RMK AO2 SLP918 T00001050 FZRANO
PAII 211956Z AUTO 09008KT 10SM CLR M06/M07 A2928 RMK AO2 SLP918 T10561072 FZRANO
PAII 211756Z AUTO 08006KT 10SM CLR M09/M11 A2928 RMK AO2 SLP919 T10891106 11078 21100 56002 FZRANO
PAII 211656Z AUTO 07006KT 10SM CLR M09/M11 A2929 RMK AO2 SLP920 T10941111 FZRANO
PAII 211356Z AUTO 10003KT 10SM CLR M09/M11 A2929 RMK AO2 SLP922 T10891106 FZRANO
PAII 211256Z AUTO 05004KT 10SM CLR M08/M11 A2929 RMK AO2 SLP921 T10831106 FZRANO